Time;durP1;ratioP1;P1;durP2;ratioP2;P2;SDS_P1;SDS_P2;PMS_P1;PMS_P2;Temp;Humidity;BMP_temperature;BMP_pressure;BME280_temperature;BME280_humidity;BME280_pressure;Samples;Min_cycle;Max_cycle;Signal;HPM_P1;HPM_P2
2021/01/22 00:01:45;;;;;;;2.03;1.77;;;;;;;;;;5016465;28;20378;-83
2021/01/22 00:04:14;;;;;;;2.08;1.70;;;;;;;;;;5017059;28;20895;-84
2021/01/22 00:06:44;;;;;;;2.07;1.60;;;;;;;;;;5016794;28;20428;-84
2021/01/22 00:09:12;;;;;;;2.07;1.50;;;;;;;;;;5017170;28;20449;-84
2021/01/22 00:11:54;;;;;;;;;;;;;;;;;;;;;
2021/01/22 00:14:23;;;;;;;2.22;1.60;;;;;;;;;;5034621;28;20380;-83
2021/01/22 00:16:53;;;;;;;2.38;1.48;;;;;;;;;;5016456;28;20366;-83
2021/01/22 00:19:19;;;;;;;2.00;1.70;;;;;;;;;;5015697;28;20382;-83
2021/01/22 00:21:45;;;;;;;3.75;1.80;;;;;;;;;;5016331;28;20378;-83
2021/01/22 00:24:11;;;;;;;1.87;1.67;;;;;;;;;;5016370;28;20828;-83
2021/01/22 00:26:37;;;;;;;2.78;1.77;;;;;;;;;;5016433;28;20831;-85
2021/01/22 00:29:03;;;;;;;3.85;1.80;;;;;;;;;;5034017;28;20432;-83
2021/01/22 00:31:32;;;;;;;2.55;1.85;;;;;;;;;;5034069;28;20453;-84
2021/01/22 00:33:58;;;;;;;2.40;1.98;;;;;;;;;;5016547;28;20365;-85
2021/01/22 00:36:24;;;;;;;2.20;1.80;;;;;;;;;;5016568;28;20409;-85
2021/01/22 00:38:50;;;;;;;2.65;1.90;;;;;;;;;;5015824;28;20420;-85
2021/01/22 00:41:29;;;;;;;2.22;1.80;;;;;;;;;;5016230;28;20403;-85
2021/01/22 00:43:57;;;;;;;3.50;1.80;;;;;;;;;;5016708;28;20452;-84
2021/01/22 00:46:23;;;;;;;2.78;1.90;;;;;;;;;;5016300;28;20399;-84
2021/01/22 00:48:59;;;;;;;2.30;1.77;;;;;;;;;;5015972;28;20376;-85
2021/01/22 00:51:30;;;;;;;2.43;1.90;;;;;;;;;;5016258;28;20378;-85
2021/01/22 00:54:08;;;;;;;3.23;2.00;;;;;;;;;;5016075;28;20743;-85
2021/01/22 00:56:34;;;;;;;2.03;1.73;;;;;;;;;;5015724;28;20878;-85
2021/01/22 00:59:00;;;;;;;2.05;1.85;;;;;;;;;;5015788;28;20408;-85
2021/01/22 01:01:30;;;;;;;2.45;2.00;;;;;;;;;;5015284;28;20358;-85
2021/01/22 01:03:56;;;;;;;2.00;1.70;;;;;;;;;;5016175;28;20885;-84
2021/01/22 01:06:25;;;;;;;3.03;1.90;;;;;;;;;;5016693;28;20370;-85
2021/01/22 01:08:54;;;;;;;1.92;1.60;;;;;;;;;;5033154;28;20354;-86
2021/01/22 01:11:23;;;;;;;2.78;1.83;;;;;;;;;;5015623;28;20421;-85
2021/01/22 01:13:49;;;;;;;2.75;1.80;;;;;;;;;;5015100;28;20374;-84
2021/01/22 01:16:15;;;;;;;2.42;1.90;;;;;;;;;;5033216;28;20700;-87
2021/01/22 01:21:17;;;;;;;2.50;1.70;;;;;;;;;;5145062;23;20563;-86
2021/01/22 01:23:49;;;;;;;1.70;1.52;;;;;;;;;;5031031;28;20476;-85
2021/01/22 01:26:15;;;;;;;2.30;1.80;;;;;;;;;;5033930;28;20413;-86
2021/01/22 01:28:44;;;;;;;3.40;1.60;;;;;;;;;;5031078;28;20467;-87
2021/01/22 01:31:22;;;;;;;2.23;1.63;;;;;;;;;;5030262;28;20457;-87
2021/01/22 01:33:54;;;;;;;2.65;1.60;;;;;;;;;;5029069;28;20828;-88
2021/01/22 01:36:23;;;;;;;2.70;1.50;;;;;;;;;;5031859;28;20404;-86
2021/01/22 01:38:55;;;;;;;2.90;1.60;;;;;;;;;;5032346;28;20840;-87
2021/01/22 01:41:30;;;;;;;2.95;1.40;;;;;;;;;;5031386;28;20397;-87
2021/01/22 01:43:56;;;;;;;1.98;1.40;;;;;;;;;;5030818;28;20394;-86
2021/01/22 01:46:22;;;;;;;2.55;1.33;;;;;;;;;;5028588;28;20428;-86
2021/01/22 01:48:48;;;;;;;1.60;1.48;;;;;;;;;;5031098;28;20455;-86
2021/01/22 01:51:17;;;;;;;2.03;1.50;;;;;;;;;;5031428;28;20883;-85
2021/01/22 01:53:43;;;;;;;2.67;1.33;;;;;;;;;;5031739;28;20503;-86
2021/01/22 01:56:15;;;;;;;1.80;1.50;;;;;;;;;;5032910;28;20384;-86
2021/01/22 01:58:41;;;;;;;1.65;1.30;;;;;;;;;;5031597;28;20369;-87
2021/01/22 02:01:17;;;;;;;1.88;1.38;;;;;;;;;;5031858;28;20732;-86
2021/01/22 02:03:46;;;;;;;1.77;1.35;;;;;;;;;;5031809;28;20440;-86
2021/01/22 02:06:12;;;;;;;1.83;1.10;;;;;;;;;;5031212;28;20381;-86
2021/01/22 02:08:39;;;;;;;1.77;1.20;;;;;;;;;;5031180;28;20373;-85
2021/01/22 02:11:09;;;;;;;1.40;1.10;;;;;;;;;;5032042;28;20368;-86
2021/01/22 02:13:36;;;;;;;1.27;1.17;;;;;;;;;;5032779;28;20457;-86
2021/01/22 02:16:02;;;;;;;1.85;1.20;;;;;;;;;;5033012;28;20358;-85
2021/01/22 02:18:29;;;;;;;1.90;1.10;;;;;;;;;;5030839;28;20917;-86
2021/01/22 02:21:00;;;;;;;1.73;1.03;;;;;;;;;;5031066;28;20392;-86
2021/01/22 02:23:26;;;;;;;1.77;1.08;;;;;;;;;;5031806;28;20472;-86
2021/01/22 02:25:55;;;;;;;1.83;1.10;;;;;;;;;;5031268;28;20890;-86
2021/01/22 02:28:21;;;;;;;1.50;1.10;;;;;;;;;;5030893;28;20707;-86
2021/01/22 02:30:49;;;;;;;2.10;1.00;;;;;;;;;;5031295;28;20377;-86
2021/01/22 02:33:19;;;;;;;3.20;1.05;;;;;;;;;;5031304;28;20401;-86
2021/01/22 02:35:51;;;;;;;1.58;1.17;;;;;;;;;;5032467;28;20873;-85
2021/01/22 02:38:17;;;;;;;1.33;1.00;;;;;;;;;;5031264;28;20440;-86
2021/01/22 02:40:44;;;;;;;2.10;1.20;;;;;;;;;;5031834;28;20453;-85
2021/01/22 02:43:11;;;;;;;1.55;1.05;;;;;;;;;;5035598;28;20465;-86
2021/01/22 02:45:40;;;;;;;1.00;0.80;;;;;;;;;;5034481;28;20387;-87
2021/01/22 02:48:12;;;;;;;1.25;0.90;;;;;;;;;;5034705;28;20370;-86
2021/01/22 02:50:47;;;;;;;1.00;0.90;;;;;;;;;;5035030;28;20409;-86
2021/01/22 02:53:13;;;;;;;1.35;0.95;;;;;;;;;;5032012;28;20385;-86
2021/01/22 02:55:39;;;;;;;0.93;0.82;;;;;;;;;;5035072;28;20357;-86
2021/01/22 02:58:25;;;;;;;1.30;0.85;;;;;;;;;;5034742;28;20372;-86
2021/01/22 03:00:53;;;;;;;2.00;0.93;;;;;;;;;;5035089;28;20376;-85
2021/01/22 03:03:37;;;;;;;1.30;0.90;;;;;;;;;;5034817;28;20728;-86
2021/01/22 03:06:04;;;;;;;1.52;0.90;;;;;;;;;;5034788;28;20416;-85
2021/01/22 03:08:33;;;;;;;2.42;1.05;;;;;;;;;;5035640;28;20392;-87
2021/01/22 03:10:59;;;;;;;1.85;1.00;;;;;;;;;;5034709;28;20372;-85
2021/01/22 03:13:27;;;;;;;3.03;1.00;;;;;;;;;;5034422;28;20380;-86
2021/01/22 03:15:54;;;;;;;1.20;0.90;;;;;;;;;;5034585;28;20362;-87
2021/01/22 03:18:20;;;;;;;1.38;1.00;;;;;;;;;;5034225;28;20372;-86
2021/01/22 03:20:47;;;;;;;0.97;0.80;;;;;;;;;;5034601;28;20475;-86
2021/01/22 03:23:15;;;;;;;1.17;1.00;;;;;;;;;;5034621;28;20404;-86
2021/01/22 03:25:41;;;;;;;2.80;1.00;;;;;;;;;;5034950;28;20370;-85
2021/01/22 03:28:08;;;;;;;1.88;1.00;;;;;;;;;;5033431;28;20384;-86
2021/01/22 03:30:34;;;;;;;2.90;1.00;;;;;;;;;;5034371;28;20768;-86
2021/01/22 03:33:00;;;;;;;1.80;0.97;;;;;;;;;;5034629;28;20386;-85
2021/01/22 03:35:26;;;;;;;1.05;0.90;;;;;;;;;;5034398;28;20712;-86
2021/01/22 03:37:53;;;;;;;0.80;0.80;;;;;;;;;;5033923;28;20388;-85
2021/01/22 03:40:19;;;;;;;2.40;1.13;;;;;;;;;;5035238;28;20855;-86
2021/01/22 03:42:46;;;;;;;1.25;0.90;;;;;;;;;;5034070;28;20763;-85
2021/01/22 03:45:21;;;;;;;0.90;0.88;;;;;;;;;;5034114;28;20390;-86
2021/01/22 03:47:47;;;;;;;1.30;1.00;;;;;;;;;;5033963;28;20400;-86
2021/01/22 03:50:13;;;;;;;2.07;1.00;;;;;;;;;;5034082;28;20408;-86
2021/01/22 03:52:42;;;;;;;1.30;0.90;;;;;;;;;;5032848;28;20377;-87
2021/01/22 03:55:11;;;;;;;1.65;1.00;;;;;;;;;;5035351;28;20370;-87
2021/01/22 03:57:37;;;;;;;1.25;0.90;;;;;;;;;;5024063;28;20420;-87
2021/01/22 04:00:05;;;;;;;2.95;1.10;;;;;;;;;;5039588;28;20377;-87
2021/01/22 04:02:30;;;;;;;1.20;1.10;;;;;;;;;;5036483;28;20370;-86
2021/01/22 04:04:56;;;;;;;1.55;1.20;;;;;;;;;;5035133;28;20404;-85
2021/01/22 04:07:22;;;;;;;1.42;1.10;;;;;;;;;;5033363;28;20397;-86
2021/01/22 04:09:54;;;;;;;2.00;1.30;;;;;;;;;;5035141;28;20419;-86
2021/01/22 04:12:20;;;;;;;2.57;1.20;;;;;;;;;;5035190;28;20357;-87
2021/01/22 04:14:46;;;;;;;1.10;1.00;;;;;;;;;;5035028;28;20452;-86
2021/01/22 04:17:12;;;;;;;2.35;1.13;;;;;;;;;;5033343;28;20420;-86
2021/01/22 04:19:38;;;;;;;1.30;1.00;;;;;;;;;;5034216;28;20385;-86
2021/01/22 04:22:07;;;;;;;1.20;1.05;;;;;;;;;;5033638;28;20464;-86
2021/01/22 04:24:35;;;;;;;1.25;1.13;;;;;;;;;;5033248;28;20447;-87
2021/01/22 04:27:01;;;;;;;1.70;1.00;;;;;;;;;;5034583;28;20376;-86
2021/01/22 04:29:33;;;;;;;2.40;1.10;;;;;;;;;;5034554;28;20361;-87
2021/01/22 04:32:06;;;;;;;1.50;1.00;;;;;;;;;;5033047;28;20480;-86
2021/01/22 04:34:35;;;;;;;1.38;1.10;;;;;;;;;;5031626;28;20374;-87
2021/01/22 04:37:02;;;;;;;2.30;1.23;;;;;;;;;;5032167;28;20377;-86
2021/01/22 04:39:32;;;;;;;2.00;1.10;;;;;;;;;;5032377;28;20872;-86
2021/01/22 04:41:59;;;;;;;1.33;1.07;;;;;;;;;;5031694;28;20365;-86
2021/01/22 04:44:25;;;;;;;1.50;1.10;;;;;;;;;;5031406;28;20871;-87
2021/01/22 04:46:52;;;;;;;1.23;1.13;;;;;;;;;;5031800;28;20424;-86
2021/01/22 04:49:20;;;;;;;1.73;1.00;;;;;;;;;;5032026;28;20377;-88
2021/01/22 04:51:46;;;;;;;1.20;0.93;;;;;;;;;;5031645;28;20454;-87
2021/01/22 04:54:22;;;;;;;2.15;1.40;;;;;;;;;;5032664;28;20423;-87
2021/01/22 04:56:49;;;;;;;2.13;1.13;;;;;;;;;;5032359;28;20356;-87
2021/01/22 04:59:22;;;;;;;1.30;1.10;;;;;;;;;;5031668;28;20376;-87
2021/01/22 05:01:49;;;;;;;1.88;1.13;;;;;;;;;;5032032;28;20847;-86
2021/01/22 05:04:18;;;;;;;1.42;1.10;;;;;;;;;;5031669;28;20411;-86
2021/01/22 05:06:48;;;;;;;2.53;1.00;;;;;;;;;;5030721;28;20381;-86
2021/01/22 05:09:14;;;;;;;1.83;1.20;;;;;;;;;;5032086;28;20365;-87
2021/01/22 05:11:46;;;;;;;1.33;1.23;;;;;;;;;;5032843;28;20770;-85
2021/01/22 05:14:11;;;;;;;1.75;1.10;;;;;;;;;;5031583;28;20396;-85
2021/01/22 05:16:43;;;;;;;1.80;1.20;;;;;;;;;;5030907;28;20382;-85
2021/01/22 05:19:24;;;;;;;2.37;1.03;;;;;;;;;;5032039;28;20361;-87
2021/01/22 05:21:50;;;;;;;2.13;1.20;;;;;;;;;;5031736;28;20385;-85
2021/01/22 05:24:23;;;;;;;3.10;1.30;;;;;;;;;;5032001;28;20393;-87
2021/01/22 05:27:18;;;;;;;1.38;1.20;;;;;;;;;;5030860;28;21162;-86
2021/01/22 05:29:44;;;;;;;1.45;1.00;;;;;;;;;;4998734;28;20461;-87
2021/01/22 05:32:24;;;;;;;1.40;1.00;;;;;;;;;;5030896;28;20373;-85
2021/01/22 05:34:50;;;;;;;1.20;1.10;;;;;;;;;;5031845;28;20401;-86
2021/01/22 05:37:16;;;;;;;2.22;1.35;;;;;;;;;;5032891;28;20369;-88
2021/01/22 05:39:45;;;;;;;1.67;1.30;;;;;;;;;;5031699;28;20374;-86
2021/01/22 05:42:12;;;;;;;1.33;1.08;;;;;;;;;;5031858;28;20370;-85
2021/01/22 05:44:54;;;;;;;1.63;1.20;;;;;;;;;;5031670;28;20397;-86
2021/01/22 05:47:20;;;;;;;2.60;1.20;;;;;;;;;;5030778;28;20428;-85
2021/01/22 05:49:55;;;;;;;0.90;0.90;;;;;;;;;;5031395;28;20381;-85
2021/01/22 05:52:22;;;;;;;1.98;1.05;;;;;;;;;;5014975;28;20374;-85
2021/01/22 05:54:48;;;;;;;4.35;1.27;;;;;;;;;;5015076;28;20416;-85
2021/01/22 05:57:14;;;;;;;1.60;1.02;;;;;;;;;;4999775;28;20883;-86
2021/01/22 05:59:40;;;;;;;1.67;1.10;;;;;;;;;;4995805;28;20386;-87
2021/01/22 06:02:25;;;;;;;2.33;1.30;;;;;;;;;;5004220;28;20379;-88
2021/01/22 06:05:10;;;;;;;2.15;1.20;;;;;;;;;;5000356;28;20893;-87
2021/01/22 06:07:40;;;;;;;1.90;1.13;;;;;;;;;;5007823;28;20377;-90
2021/01/22 06:10:18;;;;;;;2.10;1.23;;;;;;;;;;4995482;28;20376;-90
2021/01/22 06:12:54;;;;;;;1.60;1.10;;;;;;;;;;5011339;28;20371;-91
2021/01/22 06:15:24;;;;;;;1.20;1.10;;;;;;;;;;5017128;28;20382;-90
2021/01/22 06:17:51;;;;;;;1.83;1.20;;;;;;;;;;5014434;28;20393;-88
2021/01/22 06:20:30;;;;;;;2.17;1.15;;;;;;;;;;5010941;28;20393;-90
2021/01/22 06:23:18;;;;;;;1.88;1.30;;;;;;;;;;5014121;28;20390;-88
2021/01/22 06:25:49;;;;;;;1.27;1.10;;;;;;;;;;5012542;28;20761;-87
2021/01/22 06:28:44;;;;;;;1.60;1.02;;;;;;;;;;5032832;28;20373;-89
2021/01/22 06:31:18;;;;;;;1.30;1.20;;;;;;;;;;5014059;28;20420;-87
2021/01/22 06:33:48;;;;;;;3.23;1.30;;;;;;;;;;5013917;28;20868;-88
2021/01/22 06:36:17;;;;;;;1.33;1.02;;;;;;;;;;5011879;28;20382;-88
2021/01/22 06:38:50;;;;;;;1.70;1.00;;;;;;;;;;5008780;28;20568;-88
2021/01/22 06:41:17;;;;;;;1.58;1.10;;;;;;;;;;5010910;28;20385;-89
2021/01/22 06:43:46;;;;;;;1.85;1.20;;;;;;;;;;5011763;28;20393;-89
2021/01/22 06:46:15;;;;;;;1.70;1.20;;;;;;;;;;5011654;28;20833;-88
2021/01/22 06:48:55;;;;;;;2.10;1.00;;;;;;;;;;4994999;28;20428;-90
2021/01/22 06:51:33;;;;;;;2.05;1.20;;;;;;;;;;5012413;28;20460;-88
2021/01/22 06:54:18;;;;;;;2.60;1.00;;;;;;;;;;5011570;28;20388;-89
2021/01/22 06:56:45;;;;;;;1.45;1.10;;;;;;;;;;5010456;28;20416;-89
2021/01/22 06:59:28;;;;;;;1.65;1.08;;;;;;;;;;5012188;28;20384;-87
2021/01/22 07:01:58;;;;;;;2.35;1.20;;;;;;;;;;5017170;28;20377;-90
2021/01/22 07:04:37;;;;;;;1.97;1.30;;;;;;;;;;5019568;28;20427;-89
2021/01/22 07:07:39;;;;;;;1.85;1.20;;;;;;;;;;5033444;28;20382;-87
2021/01/22 07:10:05;;;;;;;1.50;1.10;;;;;;;;;;5009191;28;20383;-88
2021/01/22 07:12:35;;;;;;;1.53;1.00;;;;;;;;;;5013168;28;20380;-87
2021/01/22 07:15:01;;;;;;;2.10;1.20;;;;;;;;;;5030922;28;20370;-87
2021/01/22 07:17:29;;;;;;;2.33;1.20;;;;;;;;;;5029848;28;20358;-87
2021/01/22 07:20:06;;;;;;;1.20;1.10;;;;;;;;;;5013883;28;20370;-87
2021/01/22 07:22:33;;;;;;;2.03;1.13;;;;;;;;;;5031358;28;20397;-86
2021/01/22 07:25:08;;;;;;;2.35;1.00;;;;;;;;;;5013470;28;20393;-86
2021/01/22 07:27:44;;;;;;;2.08;1.10;;;;;;;;;;5012945;28;20381;-87
2021/01/22 07:30:15;;;;;;;1.92;1.08;;;;;;;;;;5017288;28;20448;-87
2021/01/22 07:32:48;;;;;;;2.70;1.23;;;;;;;;;;5018409;28;20382;-89
2021/01/22 07:35:21;;;;;;;1.88;1.30;;;;;;;;;;5016648;28;20377;-88
2021/01/22 07:37:51;;;;;;;1.63;0.93;;;;;;;;;;5016928;28;20369;-90
2021/01/22 07:40:22;;;;;;;1.65;1.05;;;;;;;;;;5016759;28;20380;-90
2021/01/22 07:42:48;;;;;;;1.55;1.10;;;;;;;;;;5560705;22;20372;-86
2021/01/22 07:45:17;;;;;;;1.88;1.05;;;;;;;;;;5020403;28;20893;-87
2021/01/22 07:47:59;;;;;;;2.10;1.05;;;;;;;;;;5010835;28;20427;-90
2021/01/22 07:50:35;;;;;;;2.97;1.23;;;;;;;;;;4994789;28;20373;-87
2021/01/22 07:55:51;;;;;;;3.08;1.33;;;;;;;;;;5251069;23;20402;-87
2021/01/22 07:58:19;;;;;;;1.92;1.20;;;;;;;;;;4995772;28;20395;-82
2021/01/22 13:03:18;;;;;;;3.13;1.20;;;;;;;;;;5575740;23;20745;-83
2021/01/22 13:05:44;;;;;;;3.95;1.50;;;;;;;;;;4919224;29;20420;-82
2021/01/22 13:08:13;;;;;;;2.80;1.50;;;;;;;;;;4923952;29;20373;-82
2021/01/22 13:10:39;;;;;;;2.97;1.25;;;;;;;;;;4932150;29;20378;-82
2021/01/22 13:13:05;;;;;;;2.50;1.17;;;;;;;;;;4932861;29;20912;-84
2021/01/22 13:15:31;;;;;;;2.75;1.15;;;;;;;;;;4933145;29;20409;-85
2021/01/22 13:17:57;;;;;;;2.72;1.40;;;;;;;;;;4931374;29;20377;-81
2021/01/22 13:20:23;;;;;;;2.30;1.40;;;;;;;;;;4932573;29;20381;-83
2021/01/22 13:22:49;;;;;;;1.90;1.20;;;;;;;;;;4932571;29;20381;-82
2021/01/22 13:25:15;;;;;;;2.38;1.30;;;;;;;;;;4932381;29;20409;-82
2021/01/22 13:27:41;;;;;;;2.38;1.42;;;;;;;;;;4932498;29;20413;-84
2021/01/22 13:30:09;;;;;;;2.83;1.40;;;;;;;;;;4932389;29;20366;-84
2021/01/22 13:32:36;;;;;;;3.50;1.58;;;;;;;;;;4932229;29;20879;-82
2021/01/22 13:35:02;;;;;;;3.15;1.40;;;;;;;;;;4932012;29;20436;-84
2021/01/22 13:37:28;;;;;;;3.63;1.70;;;;;;;;;;4931819;29;20788;-83
2021/01/22 13:39:54;;;;;;;6.30;1.85;;;;;;;;;;4932019;29;20410;-82
2021/01/22 13:42:20;;;;;;;3.47;1.95;;;;;;;;;;4932773;29;20374;-82
2021/01/22 13:44:47;;;;;;;3.90;1.58;;;;;;;;;;4932496;29;20397;-82
2021/01/22 13:47:13;;;;;;;4.28;1.70;;;;;;;;;;4915204;29;20390;-82
2021/01/22 13:49:39;;;;;;;3.17;1.50;;;;;;;;;;4933145;29;20370;-82
2021/01/22 13:52:05;;;;;;;2.20;1.57;;;;;;;;;;4928971;29;20516;-87
2021/01/22 13:54:31;;;;;;;3.22;1.60;;;;;;;;;;4910282;29;20371;-83
2021/01/22 13:56:58;;;;;;;4.38;1.40;;;;;;;;;;4912959;29;20383;-82
2021/01/22 13:59:24;;;;;;;3.80;1.45;;;;;;;;;;4895707;29;20423;-83
2021/01/22 14:01:51;;;;;;;2.33;1.20;;;;;;;;;;4912838;29;20899;-84
2021/01/22 14:04:17;;;;;;;2.90;1.50;;;;;;;;;;4912407;29;20418;-85
2021/01/22 14:06:43;;;;;;;2.63;1.55;;;;;;;;;;4912482;29;21151;-84
2021/01/22 14:09:09;;;;;;;4.15;1.60;;;;;;;;;;4895565;29;20439;-85
2021/01/22 14:11:35;;;;;;;1.83;1.23;;;;;;;;;;4912808;29;20448;-85
2021/01/22 14:14:02;;;;;;;2.10;1.50;;;;;;;;;;4912591;29;20414;-83
2021/01/22 14:16:28;;;;;;;2.10;1.40;;;;;;;;;;4912520;29;20387;-85
2021/01/22 14:18:54;;;;;;;4.90;1.42;;;;;;;;;;4912332;29;20382;-83
2021/01/22 14:21:20;;;;;;;3.63;1.50;;;;;;;;;;4895180;29;20870;-84
2021/01/22 14:23:46;;;;;;;2.17;1.52;;;;;;;;;;4912393;29;20862;-83
2021/01/22 14:26:12;;;;;;;3.78;1.58;;;;;;;;;;4913116;29;20395;-85
2021/01/22 14:28:38;;;;;;;4.18;1.80;;;;;;;;;;4911382;29;20371;-83
2021/01/22 14:31:04;;;;;;;2.45;1.65;;;;;;;;;;4911893;29;20376;-83
2021/01/22 14:33:30;;;;;;;3.88;1.40;;;;;;;;;;4895133;29;20932;-80
2021/01/22 14:35:56;;;;;;;3.90;1.65;;;;;;;;;;4911641;29;20403;-83
2021/01/22 14:38:23;;;;;;;3.15;1.50;;;;;;;;;;4914650;29;20398;-83
2021/01/22 14:40:49;;;;;;;4.03;1.70;;;;;;;;;;4899126;29;20758;-83
2021/01/22 14:43:15;;;;;;;3.97;2.30;;;;;;;;;;4915939;29;20812;-83
2021/01/22 14:45:41;;;;;;;4.40;1.80;;;;;;;;;;4899064;29;20407;-84
2021/01/22 14:48:07;;;;;;;3.67;1.50;;;;;;;;;;4916896;29;20399;-84
2021/01/22 14:50:42;;;;;;;3.60;2.10;;;;;;;;;;5198408;23;20561;-84
2021/01/22 14:53:11;;;;;;;2.65;1.55;;;;;;;;;;4951924;28;20463;-89
2021/01/22 14:55:43;;;;;;;3.10;1.67;;;;;;;;;;4954644;29;20380;-85
2021/01/22 14:58:11;;;;;;;3.37;1.43;;;;;;;;;;4938297;29;20861;-83
2021/01/22 15:00:38;;;;;;;5.03;2.08;;;;;;;;;;4941479;29;20743;-87
2021/01/22 15:03:07;;;;;;;2.70;1.40;;;;;;;;;;4949122;29;20399;-86
2021/01/22 15:05:42;;;;;;;3.40;1.60;;;;;;;;;;4947149;29;20405;-87
2021/01/22 15:08:23;;;;;;;2.85;1.45;;;;;;;;;;4949459;29;20439;-85
2021/01/22 15:10:52;;;;;;;2.90;1.80;;;;;;;;;;4960351;29;20723;-84
2021/01/22 15:13:18;;;;;;;3.42;1.60;;;;;;;;;;4939055;29;20384;-84
2021/01/22 15:18:18;;;;;;;4.00;1.80;;;;;;;;;;4934150;29;20501;-86
2021/01/22 15:20:53;;;;;;;3.90;2.00;;;;;;;;;;4935476;29;20402;-85
2021/01/22 15:23:38;;;;;;;3.17;1.75;;;;;;;;;;4931724;29;20388;-85
2021/01/22 15:26:05;;;;;;;4.60;2.10;;;;;;;;;;4936208;29;20442;-85
2021/01/22 15:28:31;;;;;;;3.08;1.85;;;;;;;;;;4936948;29;20362;-85
2021/01/22 15:30:59;;;;;;;2.90;1.98;;;;;;;;;;4936769;29;20890;-85
2021/01/22 15:33:25;;;;;;;2.88;1.75;;;;;;;;;;4909515;29;20381;-85
2021/01/22 15:35:52;;;;;;;4.68;1.92;;;;;;;;;;4937178;29;20857;-85
2021/01/22 15:38:18;;;;;;;4.13;2.00;;;;;;;;;;4937133;29;20437;-85
2021/01/22 15:40:44;;;;;;;3.55;2.15;;;;;;;;;;4937484;29;20370;-85
2021/01/22 15:43:11;;;;;;;3.38;2.00;;;;;;;;;;4937400;29;20511;-85
2021/01/22 15:45:37;;;;;;;4.80;2.85;;;;;;;;;;4937192;29;20505;-86
2021/01/22 15:48:03;;;;;;;3.80;2.90;;;;;;;;;;4936561;29;20397;-85
2021/01/22 15:50:29;;;;;;;5.32;3.00;;;;;;;;;;4937211;29;20860;-85
2021/01/22 15:52:55;;;;;;;3.50;2.53;;;;;;;;;;4932931;29;20416;-86
2021/01/22 15:55:21;;;;;;;6.13;4.10;;;;;;;;;;4937660;29;20370;-81
2021/01/22 15:57:48;;;;;;;6.43;4.40;;;;;;;;;;4920955;29;20379;-83
2021/01/22 16:00:14;;;;;;;6.93;4.07;;;;;;;;;;4917828;29;20847;-88
2021/01/22 16:02:42;;;;;;;6.00;3.60;;;;;;;;;;4930554;29;20761;-81
2021/01/22 16:05:09;;;;;;;5.57;3.80;;;;;;;;;;5069640;23;20523;-83
